Purki — 9HA2386 — position and weather

sailwx.info

Track history (hours):
 
Tides and Currents Weather Stations Pressure Air Temp Water Temp Dewpoint Dewpoint Depression Visibility Wind Speed Wind Dir Waves Ship Positions

Purki

Last reported at 2014-Oct-29 12:23 UTC. Time now 2014-Oct-31 23:02 UTC.
Position N 34°20' E 024°59'.

Length 147 m; draft 8.5 m.

Type: Ship. MMSI: 248495000.

Date/timePositionNaut miles runAvg speedWind from/ knotsBaromVisibWave heightAir tempDewpointWater temp
2014-Oct-29 12:23N 34°20' E 024°59'1011.8
2014-Oct-29 11:33N 34°22' E 025°10'4112.2
2014-Oct-29 08:12N 34°31' E 025°58'  
2014-Oct-25 17:32N 37°17' E 026°55'1212.3
2014-Oct-25 16:33N 37°27' E 026°48'1212.3
2014-Oct-25 15:33N 37°36' E 026°37'1311.7
2014-Oct-25 14:27N 37°47' E 026°29'1112.1
2014-Oct-25 13:31N 37°58' E 026°23'147 5.2
2014-Oct-24 09:26N 40°24' E 026°42'7111.9
2014-Oct-24 03:28N 40°40' E 028°13'1212.4
2014-Oct-24 02:28N 40°38' E 028°29'1111.6
2014-Oct-24 01:33N 40°33' E 028°41'1611.8
2014-Oct-24 00:13N 40°26' E 029°00'4 3.6
2014-Oct-23 23:12N 40°25' E 029°05'23 3.3
2014-Oct-23 16:18N 40°41' E 028°43'911.4
2014-Oct-23 15:28N 40°50' E 028°41'8 1.8
2014-Oct-23 11:10N 40°58' E 028°41'0 0.0
2014-Oct-22 23:33N 40°58' E 028°41'7 6.6
2014-Oct-22 22:33N 40°56' E 028°49'4 4.1
2014-Oct-22 21:33N 40°58' E 028°54'0 0.0
2014-Oct-22 20:33N 40°57' E 028°54'0 0.0
2014-Oct-22 19:33N 40°58' E 028°54'0 0.1
2014-Oct-22 18:27N 40°57' E 028°54'0 0.1
2014-Oct-22 17:33N 40°57' E 028°54'9 8.8
2014-Oct-22 16:32N 40°51' E 029°02'9 9.3
2014-Oct-22 15:32N 40°51' E 029°15'2 2.0
2014-Oct-22 14:33N 40°51' E 029°17'0 0.0
2014-Oct-22 13:33N 40°51' E 029°17'0 0.0
2014-Oct-22 12:33N 40°51' E 029°17'0 0.0
2014-Oct-22 11:33N 40°51' E 029°17'0 0.0
2014-Oct-22 10:33N 40°51' E 029°17'0 0.0
2014-Oct-22 09:33N 40°51' E 029°17'0 0.0
2014-Oct-22 08:33N 40°51' E 029°17'0 0.0
2014-Oct-22 07:33N 40°51' E 029°17'0 0.0
2014-Oct-22 06:33N 40°51' E 029°17'0 0.0
2014-Oct-22 05:33N 40°51' E 029°17'0 0.0
2014-Oct-22 04:33N 40°51' E 029°17'0 0.0
2014-Oct-22 03:33N 40°51' E 029°17'0 0.0
2014-Oct-22 02:33N 40°51' E 029°17'0 0.0
2014-Oct-22 01:33N 40°51' E 029°17'0 0.0
2014-Oct-22 00:33N 40°51' E 029°17'0 0.0
2014-Oct-21 23:33N 40°51' E 029°17'0 0.0
2014-Oct-21 22:33N 40°51' E 029°17'0 0.0
2014-Oct-21 21:33N 40°51' E 029°17'0 0.0
2014-Oct-21 20:33N 40°51' E 029°17'0 0.0
2014-Oct-21 19:33N 40°51' E 029°17'0 0.0
2014-Oct-21 18:33N 40°51' E 029°17'0 0.0
2014-Oct-21 17:33N 40°51' E 029°17'0 0.0
2014-Oct-21 16:33N 40°51' E 029°17'0 0.0
2014-Oct-21 15:33N 40°51' E 029°17'0 0.0
2014-Oct-21 14:33N 40°51' E 029°17'0 0.0
2014-Oct-21 13:33N 40°51' E 029°17'0 0.0
2014-Oct-21 12:33N 40°51' E 029°17'0 0.0
2014-Oct-21 11:33N 40°51' E 029°17'0 0.0
2014-Oct-21 10:33N 40°51' E 029°17'0 0.0
2014-Oct-21 09:33N 40°51' E 029°17'0 0.0
2014-Oct-21 08:33N 40°51' E 029°17'0 0.0
2014-Oct-21 07:31N 40°51' E 029°17'0 0.0
2014-Oct-21 06:33N 40°51' E 029°17'0 0.0
2014-Oct-21 05:33N 40°51' E 029°17'0 0.0
2014-Oct-21 04:33N 40°51' E 029°17'0 0.0
2014-Oct-21 03:33N 40°51' E 029°17'0 0.0
2014-Oct-21 02:33N 40°51' E 029°17'0 0.0
2014-Oct-21 01:33N 40°51' E 029°17'0 0.0
2014-Oct-21 00:33N 40°51' E 029°17'0 0.0
2014-Oct-20 23:33N 40°51' E 029°17'0 0.0
2014-Oct-20 22:33N 40°51' E 029°17'0 0.0
2014-Oct-20 21:33N 40°51' E 029°17'0 0.0
2014-Oct-20 20:33N 40°51' E 029°17'0 0.0
2014-Oct-20 19:33N 40°51' E 029°17'0 0.0
2014-Oct-20 18:33N 40°51' E 029°17'0 0.0
2014-Oct-20 17:33N 40°51' E 029°17'0 0.0
2014-Oct-20 16:33N 40°51' E 029°17'0 0.0
2014-Oct-20 15:32N 40°51' E 029°17'0 0.0
2014-Oct-20 14:33N 40°51' E 029°17'0 0.0
2014-Oct-20 13:33N 40°51' E 029°17'0 0.0
2014-Oct-20 12:33N 40°51' E 029°17'0 0.0
2014-Oct-20 11:33N 40°51' E 029°17'0 0.0
2014-Oct-20 10:33N 40°51' E 029°17'0 0.0
2014-Oct-20 09:33N 40°51' E 029°17'0 0.0
2014-Oct-20 08:33N 40°51' E 029°17'0 0.0
2014-Oct-20 07:33N 40°51' E 029°17'0 0.0
2014-Oct-20 06:33N 40°51' E 029°17'0 0.0
2014-Oct-20 05:33N 40°51' E 029°17'0 0.0
2014-Oct-20 04:33N 40°51' E 029°17'0 0.0
2014-Oct-20 03:33N 40°51' E 029°17'0 0.0
2014-Oct-20 02:33N 40°51' E 029°17'0 0.0
2014-Oct-20 01:33N 40°51' E 029°17'0 0.0
2014-Oct-20 00:33N 40°51' E 029°17'0 0.0
2014-Oct-19 23:33N 40°51' E 029°17'0 0.0
2014-Oct-19 22:33N 40°51' E 029°17'0 0.0
2014-Oct-19 21:33N 40°51' E 029°17'0 0.0
2014-Oct-19 20:33N 40°51' E 029°17'0 0.0
2014-Oct-19 19:33N 40°51' E 029°17'0 0.0
2014-Oct-19 18:33N 40°51' E 029°17'0 0.0
2014-Oct-19 17:33N 40°51' E 029°17'0 0.0
2014-Oct-19 16:33N 40°51' E 029°17'0 0.0
2014-Oct-19 15:33N 40°51' E 029°17'0 0.0
2014-Oct-19 14:33N 40°51' E 029°17'0 0.0
2014-Oct-19 13:33N 40°51' E 029°17'0 0.0
2014-Oct-19 12:33N 40°51' E 029°17'  
Track history (hours):
 
Tides and Currents Weather Stations Pressure Air Temp Water Temp Dewpoint Dewpoint Depression Visibility Wind Speed Wind Dir Waves Ship Positions

Purki

Last reported at 2014-Oct-29 12:23 UTC. Time now 2014-Oct-31 23:02 UTC.
Position N 34°20' E 024°59'.

Length 147 m; draft 8.5 m.

Type: Ship. MMSI: 248495000.

Date/timePositionNaut miles runAvg speedWind from/ knotsBaromVisibWave heightAir tempDewpointWater temp
2014-Oct-29 12:23N 34°20' E 024°59'1011.8
2014-Oct-29 11:33N 34°22' E 025°10'4112.2
2014-Oct-29 08:12N 34°31' E 025°58'  
2014-Oct-25 17:32N 37°17' E 026°55'1212.3
2014-Oct-25 16:33N 37°27' E 026°48'1212.3
2014-Oct-25 15:33N 37°36' E 026°37'1311.7
2014-Oct-25 14:27N 37°47' E 026°29'1112.1
2014-Oct-25 13:31N 37°58' E 026°23'147 5.2
2014-Oct-24 09:26N 40°24' E 026°42'7111.9
2014-Oct-24 03:28N 40°40' E 028°13'1212.4
2014-Oct-24 02:28N 40°38' E 028°29'1111.6
2014-Oct-24 01:33N 40°33' E 028°41'1611.8
2014-Oct-24 00:13N 40°26' E 029°00'4 3.6
2014-Oct-23 23:12N 40°25' E 029°05'23 3.3
2014-Oct-23 16:18N 40°41' E 028°43'911.4
2014-Oct-23 15:28N 40°50' E 028°41'8 1.8
2014-Oct-23 11:10N 40°58' E 028°41'0 0.0
2014-Oct-22 23:33N 40°58' E 028°41'7 6.6
2014-Oct-22 22:33N 40°56' E 028°49'4 4.1
2014-Oct-22 21:33N 40°58' E 028°54'0 0.0
2014-Oct-22 20:33N 40°57' E 028°54'0 0.0
2014-Oct-22 19:33N 40°58' E 028°54'0 0.1
2014-Oct-22 18:27N 40°57' E 028°54'0 0.1
2014-Oct-22 17:33N 40°57' E 028°54'9 8.8
2014-Oct-22 16:32N 40°51' E 029°02'9 9.3
2014-Oct-22 15:32N 40°51' E 029°15'2 2.0
2014-Oct-22 14:33N 40°51' E 029°17'0 0.0
2014-Oct-22 13:33N 40°51' E 029°17'0 0.0
2014-Oct-22 12:33N 40°51' E 029°17'0 0.0
2014-Oct-22 11:33N 40°51' E 029°17'0 0.0
2014-Oct-22 10:33N 40°51' E 029°17'0 0.0
2014-Oct-22 09:33N 40°51' E 029°17'0 0.0
2014-Oct-22 08:33N 40°51' E 029°17'0 0.0
2014-Oct-22 07:33N 40°51' E 029°17'0 0.0
2014-Oct-22 06:33N 40°51' E 029°17'0 0.0
2014-Oct-22 05:33N 40°51' E 029°17'0 0.0
2014-Oct-22 04:33N 40°51' E 029°17'0 0.0
2014-Oct-22 03:33N 40°51' E 029°17'0 0.0
2014-Oct-22 02:33N 40°51' E 029°17'0 0.0
2014-Oct-22 01:33N 40°51' E 029°17'0 0.0
2014-Oct-22 00:33N 40°51' E 029°17'0 0.0
2014-Oct-21 23:33N 40°51' E 029°17'0 0.0
2014-Oct-21 22:33N 40°51' E 029°17'0 0.0
2014-Oct-21 21:33N 40°51' E 029°17'0 0.0
2014-Oct-21 20:33N 40°51' E 029°17'0 0.0
2014-Oct-21 19:33N 40°51' E 029°17'0 0.0
2014-Oct-21 18:33N 40°51' E 029°17'0 0.0
2014-Oct-21 17:33N 40°51' E 029°17'0 0.0
2014-Oct-21 16:33N 40°51' E 029°17'0 0.0
2014-Oct-21 15:33N 40°51' E 029°17'0 0.0
2014-Oct-21 14:33N 40°51' E 029°17'0 0.0
2014-Oct-21 13:33N 40°51' E 029°17'0 0.0
2014-Oct-21 12:33N 40°51' E 029°17'0 0.0
2014-Oct-21 11:33N 40°51' E 029°17'0 0.0
2014-Oct-21 10:33N 40°51' E 029°17'0 0.0
2014-Oct-21 09:33N 40°51' E 029°17'0 0.0
2014-Oct-21 08:33N 40°51' E 029°17'0 0.0
2014-Oct-21 07:31N 40°51' E 029°17'0 0.0
2014-Oct-21 06:33N 40°51' E 029°17'0 0.0
2014-Oct-21 05:33N 40°51' E 029°17'0 0.0
2014-Oct-21 04:33N 40°51' E 029°17'0 0.0
2014-Oct-21 03:33N 40°51' E 029°17'0 0.0
2014-Oct-21 02:33N 40°51' E 029°17'0 0.0
2014-Oct-21 01:33N 40°51' E 029°17'0 0.0
2014-Oct-21 00:33N 40°51' E 029°17'0 0.0
2014-Oct-20 23:33N 40°51' E 029°17'0 0.0
2014-Oct-20 22:33N 40°51' E 029°17'0 0.0
2014-Oct-20 21:33N 40°51' E 029°17'0 0.0
2014-Oct-20 20:33N 40°51' E 029°17'0 0.0
2014-Oct-20 19:33N 40°51' E 029°17'0 0.0
2014-Oct-20 18:33N 40°51' E 029°17'0 0.0
2014-Oct-20 17:33N 40°51' E 029°17'0 0.0
2014-Oct-20 16:33N 40°51' E 029°17'0 0.0
2014-Oct-20 15:32N 40°51' E 029°17'0 0.0
2014-Oct-20 14:33N 40°51' E 029°17'0 0.0
2014-Oct-20 13:33N 40°51' E 029°17'0 0.0
2014-Oct-20 12:33N 40°51' E 029°17'0 0.0
2014-Oct-20 11:33N 40°51' E 029°17'0 0.0
2014-Oct-20 10:33N 40°51' E 029°17'0 0.0
2014-Oct-20 09:33N 40°51' E 029°17'0 0.0
2014-Oct-20 08:33N 40°51' E 029°17'0 0.0
2014-Oct-20 07:33N 40°51' E 029°17'0 0.0
2014-Oct-20 06:33N 40°51' E 029°17'0 0.0
2014-Oct-20 05:33N 40°51' E 029°17'0 0.0
2014-Oct-20 04:33N 40°51' E 029°17'0 0.0
2014-Oct-20 03:33N 40°51' E 029°17'0 0.0
2014-Oct-20 02:33N 40°51' E 029°17'0 0.0
2014-Oct-20 01:33N 40°51' E 029°17'0 0.0
2014-Oct-20 00:33N 40°51' E 029°17'0 0.0
2014-Oct-19 23:33N 40°51' E 029°17'0 0.0
2014-Oct-19 22:33N 40°51' E 029°17'0 0.0
2014-Oct-19 21:33N 40°51' E 029°17'0 0.0
2014-Oct-19 20:33N 40°51' E 029°17'0 0.0
2014-Oct-19 19:33N 40°51' E 029°17'0 0.0
2014-Oct-19 18:33N 40°51' E 029°17'0 0.0
2014-Oct-19 17:33N 40°51' E 029°17'0 0.0
2014-Oct-19 16:33N 40°51' E 029°17'0 0.0
2014-Oct-19 15:33N 40°51' E 029°17'0 0.0
2014-Oct-19 14:33N 40°51' E 029°17'0 0.0
2014-Oct-19 13:33N 40°51' E 029°17'0 0.0
2014-Oct-19 12:33N 40°51' E 029°17'  

Dump ship's entire track history